YUM weather

Yuma MCAS/Yuma International Airport
Yuma, Arizona, United States

Public forecast

Using degrees Fahrenheit for public forecast. Weather courtesy of forecast.io.

METAR (pilot weather report)

Retrieved 2019/08/21 09:57 UTC (1 hour ago):

KNYL 210957Z AUTO 30005KT 10SM CLR 29/04 A2970 RMK AO2 SLP053 T02940044

TAF (pilot weather forecast)

Forecast is more than 12 hours old.

Retrieved 2014/04/27 15:15 UTC (5 years ago):

TAF TAF COR KNYL 271500Z 2715/2815 VRB06KT 9999 FEW250 QNH2989INS BECMG 2716/2718 26007KT QNH2978INS BECMG 2806/2808 VRB05KT QNH2981INS AUTOMATED SENSOR METWATCH 2715 TIL 2815 TX22/2723Z TN10/2813Z COR 1545